Terminal Aerodrome Forecast
Issued by NWS Billings, MT

Home | Current Version | Previous Version | Text Only | Print | Product List | Glossary On
Versions: 1 2 3 4 5 6 7 8 9 10 11 12 13 14 15 16 17 18 19 20 21 22 23 24 25
000
FTUS45 KBYZ 051430 AAA
TAFSHR
TAF AMD
KSHR 051430Z 0515/0612 31020G28KT P6SM OVC016
     FM052100 32015G24KT P6SM -SHRA OVC025
     FM060700 31009KT P6SM BKN025=

USA.gov is the U.S. government's official web portal to all federal, state and local government web resources and services.